UIUU 060600Z 28009MPS 9999 -SHSN OVC038CB M05/M12 Q1017 R26/490350 NOSIG RMK QFE719/0958
QNH:(hPa/inHg/mmHg)1017 / 30.03 / 763
QFE:(hPa/inHg/mmHg)954 / 28.17 / 716
Temperature-5
Dew Point-12
Visibility> 10000
WeatherLight Showers Snow
Cloud CoverOVC (3800);
Transition Height1800 m./7700 ft.
Transition LevelFL90
SQUAWK